sensor_id;sensor_type;location;lat;lon;timestamp;P1;durP1;ratioP1;P2;durP2;ratioP2
13329;SDS011;6734;48.638;8.896;2023-01-15T00:00:03;1.93;;;1.50;;
13329;SDS011;6734;48.638;8.896;2023-01-15T00:02:30;2.90;;;1.20;;
13329;SDS011;6734;48.638;8.896;2023-01-15T00:04:56;1.70;;;1.40;;
13329;SDS011;6734;48.638;8.896;2023-01-15T00:07:21;2.80;;;1.77;;
13329;SDS011;6734;48.638;8.896;2023-01-15T00:09:47;4.40;;;1.70;;
13329;SDS011;6734;48.638;8.896;2023-01-15T00:12:14;3.17;;;1.83;;
13329;SDS011;6734;48.638;8.896;2023-01-15T00:14:39;2.50;;;1.43;;
13329;SDS011;6734;48.638;8.896;2023-01-15T00:17:05;1.83;;;1.27;;
13329;SDS011;6734;48.638;8.896;2023-01-15T00:19:31;1.40;;;1.00;;
13329;SDS011;6734;48.638;8.896;2023-01-15T00:21:56;1.70;;;1.20;;
13329;SDS011;6734;48.638;8.896;2023-01-15T00:24:22;2.80;;;1.33;;
13329;SDS011;6734;48.638;8.896;2023-01-15T00:27:08;2.93;;;1.20;;
13329;SDS011;6734;48.638;8.896;2023-01-15T00:29:53;2.63;;;1.43;;
13329;SDS011;6734;48.638;8.896;2023-01-15T00:32:18;2.03;;;1.47;;
13329;SDS011;6734;48.638;8.896;2023-01-15T00:34:44;2.10;;;1.47;;
13329;SDS011;6734;48.638;8.896;2023-01-15T00:37:09;2.57;;;1.17;;
13329;SDS011;6734;48.638;8.896;2023-01-15T00:39:35;2.57;;;1.27;;
13329;SDS011;6734;48.638;8.896;2023-01-15T00:42:01;1.00;;;0.83;;
13329;SDS011;6734;48.638;8.896;2023-01-15T00:44:26;1.17;;;0.90;;
13329;SDS011;6734;48.638;8.896;2023-01-15T00:46:53;2.33;;;1.50;;
13329;SDS011;6734;48.638;8.896;2023-01-15T00:49:18;1.73;;;0.90;;
13329;SDS011;6734;48.638;8.896;2023-01-15T00:51:44;1.40;;;0.90;;
13329;SDS011;6734;48.638;8.896;2023-01-15T00:54:09;1.27;;;0.90;;
13329;SDS011;6734;48.638;8.896;2023-01-15T00:56:35;0.67;;;0.60;;
13329;SDS011;6734;48.638;8.896;2023-01-15T00:59:01;2.30;;;0.87;;
13329;SDS011;6734;48.638;8.896;2023-01-15T01:01:28;2.03;;;1.20;;
13329;SDS011;6734;48.638;8.896;2023-01-15T01:03:54;1.60;;;0.70;;
13329;SDS011;6734;48.638;8.896;2023-01-15T01:06:20;1.00;;;0.70;;
13329;SDS011;6734;48.638;8.896;2023-01-15T01:08:46;2.23;;;0.90;;
13329;SDS011;6734;48.638;8.896;2023-01-15T01:11:14;2.07;;;1.10;;
13329;SDS011;6734;48.638;8.896;2023-01-15T01:13:43;2.27;;;0.80;;
13329;SDS011;6734;48.638;8.896;2023-01-15T01:16:22;2.63;;;1.00;;
13329;SDS011;6734;48.638;8.896;2023-01-15T01:18:49;1.63;;;1.00;;
13329;SDS011;6734;48.638;8.896;2023-01-15T01:21:15;0.87;;;0.70;;
13329;SDS011;6734;48.638;8.896;2023-01-15T01:23:42;1.33;;;0.60;;
13329;SDS011;6734;48.638;8.896;2023-01-15T01:26:07;0.80;;;0.70;;
13329;SDS011;6734;48.638;8.896;2023-01-15T01:28:34;0.77;;;0.70;;
13329;SDS011;6734;48.638;8.896;2023-01-15T01:31:02;0.60;;;0.50;;
13329;SDS011;6734;48.638;8.896;2023-01-15T01:33:29;0.33;;;0.30;;
13329;SDS011;6734;48.638;8.896;2023-01-15T01:35:55;0.30;;;0.20;;
13329;SDS011;6734;48.638;8.896;2023-01-15T01:38:20;1.23;;;0.50;;
13329;SDS011;6734;48.638;8.896;2023-01-15T01:40:46;1.03;;;0.70;;
13329;SDS011;6734;48.638;8.896;2023-01-15T01:43:23;1.93;;;1.33;;
13329;SDS011;6734;48.638;8.896;2023-01-15T01:45:50;0.50;;;0.37;;
13329;SDS011;6734;48.638;8.896;2023-01-15T01:48:17;0.37;;;0.37;;
13329;SDS011;6734;48.638;8.896;2023-01-15T01:50:45;0.83;;;0.30;;
13329;SDS011;6734;48.638;8.896;2023-01-15T01:53:16;1.17;;;0.33;;
13329;SDS011;6734;48.638;8.896;2023-01-15T01:55:46;0.30;;;0.20;;
13329;SDS011;6734;48.638;8.896;2023-01-15T01:58:13;0.30;;;0.30;;
13329;SDS011;6734;48.638;8.896;2023-01-15T02:00:40;1.20;;;0.20;;
13329;SDS011;6734;48.638;8.896;2023-01-15T02:03:10;0.47;;;0.40;;
13329;SDS011;6734;48.638;8.896;2023-01-15T02:05:37;0.30;;;0.30;;
13329;SDS011;6734;48.638;8.896;2023-01-15T02:08:06;0.30;;;0.30;;
13329;SDS011;6734;48.638;8.896;2023-01-15T02:10:32;0.30;;;0.30;;
13329;SDS011;6734;48.638;8.896;2023-01-15T02:13:13;0.20;;;0.20;;
13329;SDS011;6734;48.638;8.896;2023-01-15T02:15:47;0.30;;;0.30;;
13329;SDS011;6734;48.638;8.896;2023-01-15T02:18:23;0.50;;;0.40;;
13329;SDS011;6734;48.638;8.896;2023-01-15T02:21:03;0.30;;;0.30;;
13329;SDS011;6734;48.638;8.896;2023-01-15T02:29:07;0.10;;;0.10;;
13329;SDS011;6734;48.638;8.896;2023-01-15T02:31:36;0.17;;;0.17;;
13329;SDS011;6734;48.638;8.896;2023-01-15T02:34:11;0.20;;;0.20;;
13329;SDS011;6734;48.638;8.896;2023-01-15T02:36:41;0.47;;;0.30;;
13329;SDS011;6734;48.638;8.896;2023-01-15T02:39:11;0.10;;;0.10;;
13329;SDS011;6734;48.638;8.896;2023-01-15T02:41:40;0.30;;;0.30;;
13329;SDS011;6734;48.638;8.896;2023-01-15T02:44:07;0.20;;;0.20;;
13329;SDS011;6734;48.638;8.896;2023-01-15T02:46:35;0.20;;;0.20;;
13329;SDS011;6734;48.638;8.896;2023-01-15T02:49:01;0.20;;;0.20;;
13329;SDS011;6734;48.638;8.896;2023-01-15T02:51:30;0.37;;;0.30;;
13329;SDS011;6734;48.638;8.896;2023-01-15T02:54:02;0.30;;;0.30;;
13329;SDS011;6734;48.638;8.896;2023-01-15T02:56:33;0.30;;;0.30;;
13329;SDS011;6734;48.638;8.896;2023-01-15T02:59:03;0.30;;;0.30;;
13329;SDS011;6734;48.638;8.896;2023-01-15T03:01:33;0.20;;;0.20;;
13329;SDS011;6734;48.638;8.896;2023-01-15T03:04:40;1.07;;;0.20;;
13329;SDS011;6734;48.638;8.896;2023-01-15T03:09:42;0.77;;;0.33;;
13329;SDS011;6734;48.638;8.896;2023-01-15T03:14:39;0.50;;;0.40;;
13329;SDS011;6734;48.638;8.896;2023-01-15T03:17:10;0.30;;;0.30;;
13329;SDS011;6734;48.638;8.896;2023-01-15T03:20:01;0.23;;;0.23;;
13329;SDS011;6734;48.638;8.896;2023-01-15T03:22:40;0.70;;;0.20;;
13329;SDS011;6734;48.638;8.896;2023-01-15T03:25:11;0.30;;;0.30;;
13329;SDS011;6734;48.638;8.896;2023-01-15T03:27:38;0.20;;;0.20;;
13329;SDS011;6734;48.638;8.896;2023-01-15T03:30:08;0.30;;;0.30;;
13329;SDS011;6734;48.638;8.896;2023-01-15T03:32:42;0.10;;;0.10;;
13329;SDS011;6734;48.638;8.896;2023-01-15T03:35:38;0.20;;;0.20;;
13329;SDS011;6734;48.638;8.896;2023-01-15T03:37:54;0.60;;;0.30;;
13329;SDS011;6734;48.638;8.896;2023-01-15T03:40:19;0.30;;;0.30;;
13329;SDS011;6734;48.638;8.896;2023-01-15T03:42:49;0.20;;;0.20;;
13329;SDS011;6734;48.638;8.896;2023-01-15T03:45:40;0.40;;;0.30;;
13329;SDS011;6734;48.638;8.896;2023-01-15T03:48:16;0.23;;;0.20;;
13329;SDS011;6734;48.638;8.896;2023-01-15T03:50:52;0.20;;;0.20;;
13329;SDS011;6734;48.638;8.896;2023-01-15T03:53:26;0.30;;;0.30;;
13329;SDS011;6734;48.638;8.896;2023-01-15T03:56:13;0.30;;;0.30;;
13329;SDS011;6734;48.638;8.896;2023-01-15T03:58:56;0.33;;;0.30;;
13329;SDS011;6734;48.638;8.896;2023-01-15T04:01:36;0.20;;;0.20;;
13329;SDS011;6734;48.638;8.896;2023-01-15T04:04:04;0.23;;;0.23;;
13329;SDS011;6734;48.638;8.896;2023-01-15T04:06:31;0.30;;;0.30;;
13329;SDS011;6734;48.638;8.896;2023-01-15T04:08:58;0.20;;;0.20;;
13329;SDS011;6734;48.638;8.896;2023-01-15T04:11:25;0.30;;;0.10;;
13329;SDS011;6734;48.638;8.896;2023-01-15T04:13:51;0.77;;;0.30;;
13329;SDS011;6734;48.638;8.896;2023-01-15T04:16:20;1.53;;;0.50;;
13329;SDS011;6734;48.638;8.896;2023-01-15T04:18:52;0.30;;;0.30;;
13329;SDS011;6734;48.638;8.896;2023-01-15T04:21:19;0.20;;;0.20;;
13329;SDS011;6734;48.638;8.896;2023-01-15T04:23:45;0.30;;;0.30;;
13329;SDS011;6734;48.638;8.896;2023-01-15T04:26:11;0.40;;;0.40;;
13329;SDS011;6734;48.638;8.896;2023-01-15T04:28:37;0.27;;;0.27;;
13329;SDS011;6734;48.638;8.896;2023-01-15T04:31:02;0.30;;;0.30;;
13329;SDS011;6734;48.638;8.896;2023-01-15T04:33:28;0.23;;;0.17;;
13329;SDS011;6734;48.638;8.896;2023-01-15T04:35:57;0.20;;;0.20;;
13329;SDS011;6734;48.638;8.896;2023-01-15T04:38:23;1.10;;;0.60;;
13329;SDS011;6734;48.638;8.896;2023-01-15T04:40:49;0.77;;;0.47;;
13329;SDS011;6734;48.638;8.896;2023-01-15T04:43:33;0.30;;;0.30;;
13329;SDS011;6734;48.638;8.896;2023-01-15T04:46:21;0.20;;;0.20;;
13329;SDS011;6734;48.638;8.896;2023-01-15T04:48:47;0.40;;;0.20;;
13329;SDS011;6734;48.638;8.896;2023-01-15T04:51:12;0.60;;;0.37;;
13329;SDS011;6734;48.638;8.896;2023-01-15T04:53:38;0.30;;;0.30;;
13329;SDS011;6734;48.638;8.896;2023-01-15T04:56:04;1.13;;;0.30;;
13329;SDS011;6734;48.638;8.896;2023-01-15T04:58:30;0.80;;;0.47;;
13329;SDS011;6734;48.638;8.896;2023-01-15T05:00:57;0.30;;;0.30;;
13329;SDS011;6734;48.638;8.896;2023-01-15T05:03:26;0.63;;;0.20;;
13329;SDS011;6734;48.638;8.896;2023-01-15T05:05:53;0.27;;;0.23;;
13329;SDS011;6734;48.638;8.896;2023-01-15T05:08:18;0.10;;;0.10;;
13329;SDS011;6734;48.638;8.896;2023-01-15T05:10:44;0.10;;;0.10;;
13329;SDS011;6734;48.638;8.896;2023-01-15T05:13:09;0.23;;;0.23;;
13329;SDS011;6734;48.638;8.896;2023-01-15T05:15:35;0.33;;;0.20;;
13329;SDS011;6734;48.638;8.896;2023-01-15T05:18:02;0.20;;;0.20;;
13329;SDS011;6734;48.638;8.896;2023-01-15T05:20:28;0.20;;;0.20;;
13329;SDS011;6734;48.638;8.896;2023-01-15T05:22:54;0.27;;;0.23;;
13329;SDS011;6734;48.638;8.896;2023-01-15T05:25:19;0.20;;;0.20;;
13329;SDS011;6734;48.638;8.896;2023-01-15T05:27:45;0.30;;;0.27;;
13329;SDS011;6734;48.638;8.896;2023-01-15T05:30:11;0.20;;;0.20;;
13329;SDS011;6734;48.638;8.896;2023-01-15T05:32:38;0.20;;;0.20;;
13329;SDS011;6734;48.638;8.896;2023-01-15T05:35:04;0.10;;;0.10;;
13329;SDS011;6734;48.638;8.896;2023-01-15T05:37:30;0.10;;;0.10;;
13329;SDS011;6734;48.638;8.896;2023-01-15T05:39:55;0.13;;;0.13;;
13329;SDS011;6734;48.638;8.896;2023-01-15T05:42:21;0.10;;;0.10;;
13329;SDS011;6734;48.638;8.896;2023-01-15T05:44:47;0.10;;;0.10;;
13329;SDS011;6734;48.638;8.896;2023-01-15T05:47:13;0.10;;;0.10;;
13329;SDS011;6734;48.638;8.896;2023-01-15T05:49:39;0.10;;;0.10;;
13329;SDS011;6734;48.638;8.896;2023-01-15T05:52:04;0.20;;;0.20;;
13329;SDS011;6734;48.638;8.896;2023-01-15T05:54:31;0.20;;;0.20;;
13329;SDS011;6734;48.638;8.896;2023-01-15T05:56:58;0.17;;;0.17;;
13329;SDS011;6734;48.638;8.896;2023-01-15T05:59:25;0.10;;;0.10;;
13329;SDS011;6734;48.638;8.896;2023-01-15T06:01:52;0.10;;;0.10;;
13329;SDS011;6734;48.638;8.896;2023-01-15T06:04:19;0.27;;;0.27;;
13329;SDS011;6734;48.638;8.896;2023-01-15T06:06:46;0.20;;;0.20;;
13329;SDS011;6734;48.638;8.896;2023-01-15T06:09:13;0.10;;;0.10;;
13329;SDS011;6734;48.638;8.896;2023-01-15T06:11:39;0.10;;;0.10;;
13329;SDS011;6734;48.638;8.896;2023-01-15T06:14:05;0.10;;;0.10;;
13329;SDS011;6734;48.638;8.896;2023-01-15T06:16:31;0.70;;;0.37;;
13329;SDS011;6734;48.638;8.896;2023-01-15T06:19:04;0.27;;;0.27;;
13329;SDS011;6734;48.638;8.896;2023-01-15T06:21:31;0.67;;;0.40;;
13329;SDS011;6734;48.638;8.896;2023-01-15T06:23:58;0.20;;;0.20;;
13329;SDS011;6734;48.638;8.896;2023-01-15T06:26:24;0.40;;;0.40;;
13329;SDS011;6734;48.638;8.896;2023-01-15T06:28:50;0.30;;;0.30;;
13329;SDS011;6734;48.638;8.896;2023-01-15T06:31:17;0.90;;;0.60;;
13329;SDS011;6734;48.638;8.896;2023-01-15T06:33:43;0.73;;;0.60;;
13329;SDS011;6734;48.638;8.896;2023-01-15T06:36:13;0.67;;;0.67;;
13329;SDS011;6734;48.638;8.896;2023-01-15T06:38:39;1.43;;;0.57;;
13329;SDS011;6734;48.638;8.896;2023-01-15T06:41:06;0.20;;;0.20;;
13329;SDS011;6734;48.638;8.896;2023-01-15T06:43:54;0.67;;;0.20;;
13329;SDS011;6734;48.638;8.896;2023-01-15T06:46:39;0.27;;;0.27;;
13329;SDS011;6734;48.638;8.896;2023-01-15T06:49:30;1.10;;;0.40;;
13329;SDS011;6734;48.638;8.896;2023-01-15T06:51:56;0.20;;;0.20;;
13329;SDS011;6734;48.638;8.896;2023-01-15T06:54:22;0.10;;;0.10;;
13329;SDS011;6734;48.638;8.896;2023-01-15T06:56:48;0.30;;;0.30;;
13329;SDS011;6734;48.638;8.896;2023-01-15T06:59:13;0.20;;;0.20;;
13329;SDS011;6734;48.638;8.896;2023-01-15T07:01:39;0.30;;;0.10;;
13329;SDS011;6734;48.638;8.896;2023-01-15T07:04:04;0.10;;;0.10;;
13329;SDS011;6734;48.638;8.896;2023-01-15T07:06:30;0.57;;;0.37;;
13329;SDS011;6734;48.638;8.896;2023-01-15T07:08:56;1.90;;;0.50;;
13329;SDS011;6734;48.638;8.896;2023-01-15T07:11:22;1.23;;;0.30;;
13329;SDS011;6734;48.638;8.896;2023-01-15T07:13:48;1.00;;;0.90;;
13329;SDS011;6734;48.638;8.896;2023-01-15T07:16:14;1.87;;;0.80;;
13329;SDS011;6734;48.638;8.896;2023-01-15T07:18:53;0.83;;;0.67;;
13329;SDS011;6734;48.638;8.896;2023-01-15T07:21:19;2.17;;;0.80;;
13329;SDS011;6734;48.638;8.896;2023-01-15T07:23:45;1.20;;;0.60;;
13329;SDS011;6734;48.638;8.896;2023-01-15T07:26:11;1.00;;;0.50;;
13329;SDS011;6734;48.638;8.896;2023-01-15T07:28:37;0.70;;;0.60;;
13329;SDS011;6734;48.638;8.896;2023-01-15T07:31:03;1.50;;;1.00;;
13329;SDS011;6734;48.638;8.896;2023-01-15T07:33:29;0.97;;;0.57;;
13329;SDS011;6734;48.638;8.896;2023-01-15T07:35:55;0.40;;;0.40;;
13329;SDS011;6734;48.638;8.896;2023-01-15T07:38:21;9.53;;;4.23;;
13329;SDS011;6734;48.638;8.896;2023-01-15T07:40:47;11.37;;;5.50;;
13329;SDS011;6734;48.638;8.896;2023-01-15T07:43:36;2.37;;;1.50;;
13329;SDS011;6734;48.638;8.896;2023-01-15T07:46:20;0.37;;;0.37;;
13329;SDS011;6734;48.638;8.896;2023-01-15T07:49:07;4.07;;;2.70;;
13329;SDS011;6734;48.638;8.896;2023-01-15T07:51:52;2.13;;;1.43;;
13329;SDS011;6734;48.638;8.896;2023-01-15T07:54:17;1.40;;;1.30;;
13329;SDS011;6734;48.638;8.896;2023-01-15T07:56:43;3.00;;;2.20;;
13329;SDS011;6734;48.638;8.896;2023-01-15T07:59:08;2.40;;;1.90;;
13329;SDS011;6734;48.638;8.896;2023-01-15T08:01:34;1.40;;;1.20;;
13329;SDS011;6734;48.638;8.896;2023-01-15T08:03:59;0.43;;;0.43;;
13329;SDS011;6734;48.638;8.896;2023-01-15T08:06:25;1.23;;;0.40;;
13329;SDS011;6734;48.638;8.896;2023-01-15T08:08:51;0.30;;;0.30;;
13329;SDS011;6734;48.638;8.896;2023-01-15T08:11:16;0.30;;;0.30;;
13329;SDS011;6734;48.638;8.896;2023-01-15T08:14:01;0.67;;;0.53;;
13329;SDS011;6734;48.638;8.896;2023-01-15T08:16:45;1.63;;;0.77;;
13329;SDS011;6734;48.638;8.896;2023-01-15T08:19:11;0.77;;;0.57;;
13329;SDS011;6734;48.638;8.896;2023-01-15T08:21:36;3.17;;;1.70;;
13329;SDS011;6734;48.638;8.896;2023-01-15T08:24:02;3.13;;;1.30;;
13329;SDS011;6734;48.638;8.896;2023-01-15T08:26:28;3.57;;;1.27;;
13329;SDS011;6734;48.638;8.896;2023-01-15T08:28:54;1.00;;;0.90;;
13329;SDS011;6734;48.638;8.896;2023-01-15T08:31:19;0.27;;;0.27;;
13329;SDS011;6734;48.638;8.896;2023-01-15T08:33:45;0.50;;;0.50;;
13329;SDS011;6734;48.638;8.896;2023-01-15T08:36:11;0.40;;;0.40;;
13329;SDS011;6734;48.638;8.896;2023-01-15T08:38:38;4.77;;;0.67;;
13329;SDS011;6734;48.638;8.896;2023-01-15T08:41:04;0.20;;;0.20;;
13329;SDS011;6734;48.638;8.896;2023-01-15T08:43:30;0.20;;;0.20;;
13329;SDS011;6734;48.638;8.896;2023-01-15T08:46:00;0.30;;;0.30;;
13329;SDS011;6734;48.638;8.896;2023-01-15T08:48:27;0.30;;;0.20;;
13329;SDS011;6734;48.638;8.896;2023-01-15T08:50:53;0.13;;;0.13;;
13329;SDS011;6734;48.638;8.896;2023-01-15T08:53:19;0.30;;;0.30;;
13329;SDS011;6734;48.638;8.896;2023-01-15T08:55:45;0.53;;;0.47;;
13329;SDS011;6734;48.638;8.896;2023-01-15T08:58:11;1.53;;;1.07;;
13329;SDS011;6734;48.638;8.896;2023-01-15T09:00:37;2.67;;;2.03;;
13329;SDS011;6734;48.638;8.896;2023-01-15T09:03:03;0.40;;;0.40;;
13329;SDS011;6734;48.638;8.896;2023-01-15T09:05:29;0.40;;;0.30;;
13329;SDS011;6734;48.638;8.896;2023-01-15T09:07:54;0.30;;;0.30;;
13329;SDS011;6734;48.638;8.896;2023-01-15T09:10:20;0.20;;;0.20;;
13329;SDS011;6734;48.638;8.896;2023-01-15T09:12:46;1.20;;;1.10;;
13329;SDS011;6734;48.638;8.896;2023-01-15T09:15:12;0.67;;;0.60;;
13329;SDS011;6734;48.638;8.896;2023-01-15T09:17:38;0.30;;;0.20;;
13329;SDS011;6734;48.638;8.896;2023-01-15T09:20:05;0.53;;;0.40;;
13329;SDS011;6734;48.638;8.896;2023-01-15T09:22:33;0.53;;;0.53;;
13329;SDS011;6734;48.638;8.896;2023-01-15T09:24:59;0.67;;;0.50;;
13329;SDS011;6734;48.638;8.896;2023-01-15T09:27:26;0.83;;;0.60;;
13329;SDS011;6734;48.638;8.896;2023-01-15T09:29:52;0.40;;;0.40;;
13329;SDS011;6734;48.638;8.896;2023-01-15T09:32:18;1.80;;;0.70;;
13329;SDS011;6734;48.638;8.896;2023-01-15T09:34:43;0.50;;;0.43;;
13329;SDS011;6734;48.638;8.896;2023-01-15T09:37:09;0.50;;;0.50;;
13329;SDS011;6734;48.638;8.896;2023-01-15T09:39:36;2.80;;;2.50;;
13329;SDS011;6734;48.638;8.896;2023-01-15T09:49:56;0.50;;;0.30;;
13329;SDS011;6734;48.638;8.896;2023-01-15T09:55:15;1.13;;;1.03;;
13329;SDS011;6734;48.638;8.896;2023-01-15T09:57:43;2.63;;;0.73;;
13329;SDS011;6734;48.638;8.896;2023-01-15T10:00:20;0.77;;;0.70;;
13329;SDS011;6734;48.638;8.896;2023-01-15T10:02:49;0.93;;;0.60;;
13329;SDS011;6734;48.638;8.896;2023-01-15T10:05:18;0.37;;;0.37;;
13329;SDS011;6734;48.638;8.896;2023-01-15T10:07:56;0.70;;;0.60;;
13329;SDS011;6734;48.638;8.896;2023-01-15T10:10:34;1.10;;;1.00;;
13329;SDS011;6734;48.638;8.896;2023-01-15T10:16:08;0.30;;;0.30;;
13329;SDS011;6734;48.638;8.896;2023-01-15T10:18:35;0.40;;;0.40;;
13329;SDS011;6734;48.638;8.896;2023-01-15T10:21:09;0.30;;;0.30;;
13329;SDS011;6734;48.638;8.896;2023-01-15T10:24:05;1.33;;;1.10;;
13329;SDS011;6734;48.638;8.896;2023-01-15T10:31:53;4.50;;;2.00;;
13329;SDS011;6734;48.638;8.896;2023-01-15T10:34:33;1.73;;;1.20;;
13329;SDS011;6734;48.638;8.896;2023-01-15T10:37:10;0.43;;;0.33;;
13329;SDS011;6734;48.638;8.896;2023-01-15T10:39:58;0.60;;;0.60;;
13329;SDS011;6734;48.638;8.896;2023-01-15T10:42:53;1.30;;;0.83;;
13329;SDS011;6734;48.638;8.896;2023-01-15T10:45:27;1.23;;;0.30;;
13329;SDS011;6734;48.638;8.896;2023-01-15T10:48:24;0.80;;;0.80;;
13329;SDS011;6734;48.638;8.896;2023-01-15T10:50:45;0.50;;;0.50;;
13329;SDS011;6734;48.638;8.896;2023-01-15T10:53:25;0.30;;;0.30;;
13329;SDS011;6734;48.638;8.896;2023-01-15T10:56:11;0.50;;;0.37;;
13329;SDS011;6734;48.638;8.896;2023-01-15T10:58:42;0.20;;;0.20;;
13329;SDS011;6734;48.638;8.896;2023-01-15T11:01:11;0.97;;;0.47;;
13329;SDS011;6734;48.638;8.896;2023-01-15T11:03:41;0.00;;;0.00;;
13329;SDS011;6734;48.638;8.896;2023-01-15T11:06:12;0.10;;;0.10;;
13329;SDS011;6734;48.638;8.896;2023-01-15T11:08:40;0.10;;;0.10;;
13329;SDS011;6734;48.638;8.896;2023-01-15T11:14:09;0.10;;;0.10;;
13329;SDS011;6734;48.638;8.896;2023-01-15T11:16:53;0.10;;;0.10;;
13329;SDS011;6734;48.638;8.896;2023-01-15T11:19:35;0.10;;;0.10;;
13329;SDS011;6734;48.638;8.896;2023-01-15T11:22:13;0.10;;;0.10;;
13329;SDS011;6734;48.638;8.896;2023-01-15T11:24:47;0.10;;;0.10;;
13329;SDS011;6734;48.638;8.896;2023-01-15T11:27:17;0.00;;;0.00;;
13329;SDS011;6734;48.638;8.896;2023-01-15T11:29:44;2.00;;;1.90;;
13329;SDS011;6734;48.638;8.896;2023-01-15T11:32:19;0.10;;;0.10;;
13329;SDS011;6734;48.638;8.896;2023-01-15T11:34:53;0.20;;;0.20;;
13329;SDS011;6734;48.638;8.896;2023-01-15T11:37:23;0.00;;;0.00;;
13329;SDS011;6734;48.638;8.896;2023-01-15T11:39:56;0.10;;;0.10;;
13329;SDS011;6734;48.638;8.896;2023-01-15T11:42:31;0.20;;;0.20;;
13329;SDS011;6734;48.638;8.896;2023-01-15T11:45:17;0.10;;;0.10;;
13329;SDS011;6734;48.638;8.896;2023-01-15T11:48:12;0.10;;;0.10;;
13329;SDS011;6734;48.638;8.896;2023-01-15T11:51:03;0.27;;;0.27;;
13329;SDS011;6734;48.638;8.896;2023-01-15T11:53:32;0.13;;;0.13;;
13329;SDS011;6734;48.638;8.896;2023-01-15T11:56:03;0.10;;;0.10;;
13329;SDS011;6734;48.638;8.896;2023-01-15T11:58:37;0.87;;;0.87;;
13329;SDS011;6734;48.638;8.896;2023-01-15T12:01:24;0.00;;;0.00;;
13329;SDS011;6734;48.638;8.896;2023-01-15T12:03:55;0.10;;;0.10;;
13329;SDS011;6734;48.638;8.896;2023-01-15T12:06:22;0.10;;;0.10;;
13329;SDS011;6734;48.638;8.896;2023-01-15T12:30:57;0.10;;;0.10;;
13329;SDS011;6734;48.638;8.896;2023-01-15T12:36:46;0.10;;;0.10;;
13329;SDS011;6734;48.638;8.896;2023-01-15T12:39:28;0.10;;;0.10;;
13329;SDS011;6734;48.638;8.896;2023-01-15T12:42:08;0.10;;;0.10;;
13329;SDS011;6734;48.638;8.896;2023-01-15T12:44:57;0.10;;;0.10;;
13329;SDS011;6734;48.638;8.896;2023-01-15T12:50:21;0.20;;;0.20;;
13329;SDS011;6734;48.638;8.896;2023-01-15T12:52:49;0.20;;;0.20;;
13329;SDS011;6734;48.638;8.896;2023-01-15T12:55:27;0.10;;;0.10;;
13329;SDS011;6734;48.638;8.896;2023-01-15T12:57:56;0.07;;;0.07;;
13329;SDS011;6734;48.638;8.896;2023-01-15T13:00:34;0.10;;;0.10;;
13329;SDS011;6734;48.638;8.896;2023-01-15T13:08:22;0.10;;;0.10;;
13329;SDS011;6734;48.638;8.896;2023-01-15T13:10:50;0.20;;;0.20;;
13329;SDS011;6734;48.638;8.896;2023-01-15T13:13:21;0.10;;;0.10;;
13329;SDS011;6734;48.638;8.896;2023-01-15T13:21:10;0.10;;;0.10;;
13329;SDS011;6734;48.638;8.896;2023-01-15T13:26:34;0.10;;;0.10;;
13329;SDS011;6734;48.638;8.896;2023-01-15T13:32:20;1.43;;;0.60;;
13329;SDS011;6734;48.638;8.896;2023-01-15T13:35:14;1.23;;;0.60;;
13329;SDS011;6734;48.638;8.896;2023-01-15T13:37:43;1.33;;;0.60;;
13329;SDS011;6734;48.638;8.896;2023-01-15T13:40:17;2.13;;;0.70;;
13329;SDS011;6734;48.638;8.896;2023-01-15T13:42:51;0.80;;;0.50;;
13329;SDS011;6734;48.638;8.896;2023-01-15T13:47:51;4.17;;;1.50;;
13329;SDS011;6734;48.638;8.896;2023-01-15T13:55:32;2.20;;;0.70;;
13329;SDS011;6734;48.638;8.896;2023-01-15T13:58:01;2.27;;;0.60;;
13329;SDS011;6734;48.638;8.896;2023-01-15T14:00:36;2.70;;;0.57;;
13329;SDS011;6734;48.638;8.896;2023-01-15T14:03:24;0.97;;;0.50;;
13329;SDS011;6734;48.638;8.896;2023-01-15T14:05:53;3.40;;;0.90;;
13329;SDS011;6734;48.638;8.896;2023-01-15T14:08:22;2.43;;;0.70;;
13329;SDS011;6734;48.638;8.896;2023-01-15T14:10:50;1.30;;;0.60;;
13329;SDS011;6734;48.638;8.896;2023-01-15T14:16:11;1.90;;;0.70;;
13329;SDS011;6734;48.638;8.896;2023-01-15T14:21:40;3.17;;;0.90;;
13329;SDS011;6734;48.638;8.896;2023-01-15T14:24:25;0.80;;;0.80;;
13329;SDS011;6734;48.638;8.896;2023-01-15T14:30:09;1.70;;;0.80;;
13329;SDS011;6734;48.638;8.896;2023-01-15T14:32:49;1.33;;;0.50;;
13329;SDS011;6734;48.638;8.896;2023-01-15T14:35:21;1.80;;;0.53;;
13329;SDS011;6734;48.638;8.896;2023-01-15T14:37:52;1.87;;;0.67;;
13329;SDS011;6734;48.638;8.896;2023-01-15T14:40:22;2.67;;;0.70;;
13329;SDS011;6734;48.638;8.896;2023-01-15T14:42:50;2.40;;;0.70;;
13329;SDS011;6734;48.638;8.896;2023-01-15T14:48:42;1.77;;;0.70;;
13329;SDS011;6734;48.638;8.896;2023-01-15T14:50:43;1.73;;;0.60;;
13329;SDS011;6734;48.638;8.896;2023-01-15T14:55:37;0.83;;;0.63;;
13329;SDS011;6734;48.638;8.896;2023-01-15T14:58:24;0.50;;;0.33;;
13329;SDS011;6734;48.638;8.896;2023-01-15T15:01:16;1.70;;;0.80;;
13329;SDS011;6734;48.638;8.896;2023-01-15T15:06:30;1.70;;;0.60;;
13329;SDS011;6734;48.638;8.896;2023-01-15T15:08:59;2.03;;;0.90;;
13329;SDS011;6734;48.638;8.896;2023-01-15T15:11:35;0.87;;;0.63;;
13329;SDS011;6734;48.638;8.896;2023-01-15T15:14:25;0.63;;;0.60;;
13329;SDS011;6734;48.638;8.896;2023-01-15T15:16:53;0.53;;;0.53;;
13329;SDS011;6734;48.638;8.896;2023-01-15T15:19:27;1.13;;;0.63;;
13329;SDS011;6734;48.638;8.896;2023-01-15T15:22:07;0.83;;;0.70;;
13329;SDS011;6734;48.638;8.896;2023-01-15T15:24:39;1.00;;;0.53;;
13329;SDS011;6734;48.638;8.896;2023-01-15T15:27:14;1.93;;;0.63;;
13329;SDS011;6734;48.638;8.896;2023-01-15T15:29:41;2.50;;;0.80;;
13329;SDS011;6734;48.638;8.896;2023-01-15T15:32:07;0.77;;;0.53;;
13329;SDS011;6734;48.638;8.896;2023-01-15T15:34:47;0.83;;;0.60;;
13329;SDS011;6734;48.638;8.896;2023-01-15T15:37:18;0.50;;;0.50;;
13329;SDS011;6734;48.638;8.896;2023-01-15T15:45:21;0.70;;;0.60;;
13329;SDS011;6734;48.638;8.896;2023-01-15T15:48:54;1.23;;;0.80;;
13329;SDS011;6734;48.638;8.896;2023-01-15T15:53:50;1.60;;;0.60;;
13329;SDS011;6734;48.638;8.896;2023-01-15T15:56:26;2.17;;;1.40;;
13329;SDS011;6734;48.638;8.896;2023-01-15T15:58:51;5.17;;;1.50;;
13329;SDS011;6734;48.638;8.896;2023-01-15T16:01:19;2.83;;;1.50;;
13329;SDS011;6734;48.638;8.896;2023-01-15T16:03:46;1.00;;;0.90;;
13329;SDS011;6734;48.638;8.896;2023-01-15T16:06:16;0.97;;;0.77;;
13329;SDS011;6734;48.638;8.896;2023-01-15T16:08:56;2.43;;;1.30;;
13329;SDS011;6734;48.638;8.896;2023-01-15T16:11:29;1.70;;;0.90;;
13329;SDS011;6734;48.638;8.896;2023-01-15T16:13:56;1.37;;;0.90;;
13329;SDS011;6734;48.638;8.896;2023-01-15T16:16:25;4.30;;;1.10;;
13329;SDS011;6734;48.638;8.896;2023-01-15T16:18:53;2.80;;;1.40;;
13329;SDS011;6734;48.638;8.896;2023-01-15T16:23:54;3.57;;;1.20;;
13329;SDS011;6734;48.638;8.896;2023-01-15T16:26:21;1.77;;;1.50;;
13329;SDS011;6734;48.638;8.896;2023-01-15T16:28:54;1.57;;;0.70;;
13329;SDS011;6734;48.638;8.896;2023-01-15T16:31:21;2.33;;;0.80;;
13329;SDS011;6734;48.638;8.896;2023-01-15T16:33:54;2.47;;;1.00;;
13329;SDS011;6734;48.638;8.896;2023-01-15T16:36:22;2.20;;;1.23;;
13329;SDS011;6734;48.638;8.896;2023-01-15T16:38:50;2.70;;;1.40;;
13329;SDS011;6734;48.638;8.896;2023-01-15T16:41:20;3.40;;;1.57;;
13329;SDS011;6734;48.638;8.896;2023-01-15T16:43:53;2.30;;;1.13;;
13329;SDS011;6734;48.638;8.896;2023-01-15T16:46:19;1.53;;;1.07;;
13329;SDS011;6734;48.638;8.896;2023-01-15T16:48:46;1.53;;;1.13;;
13329;SDS011;6734;48.638;8.896;2023-01-15T16:51:29;1.90;;;1.17;;
13329;SDS011;6734;48.638;8.896;2023-01-15T16:54:00;2.27;;;0.90;;
13329;SDS011;6734;48.638;8.896;2023-01-15T16:59:01;1.83;;;1.03;;
13329;SDS011;6734;48.638;8.896;2023-01-15T17:01:40;1.37;;;0.90;;
13329;SDS011;6734;48.638;8.896;2023-01-15T17:06:53;2.80;;;1.60;;
13329;SDS011;6734;48.638;8.896;2023-01-15T17:09:24;1.90;;;0.80;;
13329;SDS011;6734;48.638;8.896;2023-01-15T17:11:50;1.97;;;0.93;;
13329;SDS011;6734;48.638;8.896;2023-01-15T17:14:19;1.93;;;1.00;;
13329;SDS011;6734;48.638;8.896;2023-01-15T17:19:43;4.40;;;1.00;;
13329;SDS011;6734;48.638;8.896;2023-01-15T17:22:12;3.40;;;1.30;;